CW2969 Weather Reports


Display with metric or nautical units.
time (UTC)temp
F
wind
direction
speed
MPH
gust
MPH
rain 1hr
in
rain 24hr
in
rain mn
in
humidity
%
barometer
mb
20220117220003 70 253 0.0 2.0 0.00 0.00 0.00 20 1017.3
20220117215003 70 265 2.0 5.0 0.00 0.00 0.00 22 1017.6
20220117214004 70 155 2.0 2.0 0.00 0.00 0.00 23 1017.6
20220117213002 69 223 3.0 6.0 0.00 0.00 0.00 23 1017.7
20220117212002 69 182 1.0 2.0 0.00 0.00 0.00 23 1017.8
20220117211001 68 70 1.0 5.0 0.00 0.00 0.00 23 1017.7
20220117210002 69 150 0.0 1.0 0.00 0.00 0.00 24 1017.9
20220117205002 68 305 1.0 2.0 0.00 0.00 0.00 24 1017.9
20220117204001 67 107 2.0 3.0 0.00 0.00 0.00 25 1017.8
20220117203001 67 277 1.0 1.0 0.00 0.00 0.00 25 1017.9
20220117202001 66 60 0.0 0.0 0.00 0.00 0.00 25 1018.0
20220117201001 66 142 0.0 2.0 0.00 0.00 0.00 27 1018.3
20220117200003 65 200 0.0 2.0 0.00 0.00 0.00 26 1018.6
20220117195001 65 80 1.0 4.0 0.00 0.00 0.00 26 1018.6
20220117194001 64 332 2.0 2.0 0.00 0.00 0.00 28 1018.6
20220117193001 64 332 0.0 1.0 0.00 0.00 0.00 27 1019.1
20220117192000 64 129 3.0 5.0 0.00 0.00 0.00 29 1019.9
20220117191000 63 145 0.0 0.0 0.00 0.00 0.00 29 1019.8
20220117190000 62 52 0.0 0.0 0.00 0.00 0.00 30 1019.6
20220117185000 61 155 3.0 4.0 0.00 0.00 0.00 32 1019.9
20220117184000 61 109 1.0 3.0 0.00 0.00 0.00 32 1020.1
20220117183000 61 117 1.0 2.0 0.00 0.00 0.00 33 1020.4
20220117182000 60 345 0.0 2.0 0.00 0.00 0.00 32 1020.6
20220117181000 60 151 0.0 4.0 0.00 0.00 0.00 32 1020.8
20220117180000 59 120 0.0 1.0 0.00 0.00 0.00 34 1021.1
20220117174959 58 112 2.0 2.0 0.00 0.00 0.00 35 1021.2
20220117173959 57 117 0.0 1.0 0.00 0.00 0.00 37 1021.4
20220117172959 55 173 1.0 1.0 0.00 0.00 0.00 39 1021.5
20220117172001 55 130 2.0 4.0 0.00 0.00 0.00 39 1021.8
20220117170959 54 105 0.0 1.0 0.00 0.00 0.00 41 1021.9
20220117165959 54 115 0.0 2.0 0.00 0.00 0.00 41 1021.8
20220117164959 53 103 0.0 1.0 0.00 0.00 0.00 42 1022.0
20220117163959 52 25 0.0 3.0 0.00 0.00 0.00 43 1021.9
20220117162959 51 22 0.0 1.0 0.00 0.00 0.00 46 1021.9
20220117161958 50 90 1.0 2.0 0.00 0.00 0.00 46 1021.8
20220117160958 50 36 0.0 0.0 0.00 0.00 0.00 48 1021.9
20220117155958 49 321 1.0 1.0 0.00 0.00 0.00 49 1021.8
20220117154958 47 77 1.0 2.0 0.00 0.00 0.00 54 1021.7
20220117153958 47 93 0.0 1.0 0.00 0.00 0.00 54 1021.6
20220117152959 46 344 1.0 1.0 0.00 0.00 0.00 56 1021.4
20220117151958 44 85 0.0 1.0 0.00 0.00 0.00 60 1021.2
20220117150958 43 90 0.0 2.0 0.00 0.00 0.00 63 1021.1
20220117145958 41 338 0.0 0.0 0.00 0.00 0.00 70 1020.9
20220117144958 38 346 0.0 0.0 0.00 0.00 0.00 78 1020.8
20220117143958 36 355 0.0 0.0 0.00 0.00 0.00 84 1020.7
20220117142957 35 355 0.0 0.0 0.00 0.00 0.00 85 1020.6
20220117141957 34 355 0.0 0.0 0.00 0.00 0.00 86 1020.6
20220117140957 33 355 0.0 1.0 0.00 0.00 0.00 86 1020.4
20220117135956 32 86 0.0 0.0 0.00 0.00 0.00 85 1020.3
20220117134957 32 86 0.0 0.0 0.00 0.00 0.00 85 1020.2
20220117133956 33 86 0.0 0.0 0.00 0.00 0.00 86 1020.3
20220117132956 32 140 0.0 0.0 0.00 0.00 0.00 87 1020.2
20220117131956 31 163 0.0 0.0 0.00 0.00 0.00 86 1020.1
20220117130956 31 163 0.0 0.0 0.00 0.00 0.00 86 1019.9
20220117125956 30 163 0.0 0.0 0.00 0.00 0.00 86 1019.7
20220117124956 30 163 0.0 0.0 0.00 0.00 0.00 85 1019.6
20220117123956 30 163 0.0 0.0 0.00 0.00 0.00 85 1019.6
20220117122955 30 163 0.0 0.0 0.00 0.00 0.00 85 1019.4
20220117121955 30 163 0.0 0.0 0.00 0.00 0.00 85 1019.3
20220117120957 30 163 0.0 0.0 0.00 0.00 0.00 85 1019.2
20220117115955 30 163 1.0 1.0 0.00 0.00 0.00 84 1019.1
20220117114955 30 163 0.0 2.0 0.00 0.00 0.00 84 1019.3
20220117113955 30 163 0.0 0.0 0.00 0.00 0.00 84 1019.3
20220117112955 30 163 0.0 0.0 0.00 0.00 0.00 84 1019.2
20220117111955 30 163 0.0 0.0 0.00 0.00 0.00 83 1019.2
20220117110954 30 162 0.0 0.0 0.00 0.00 0.00 83 1019.3
20220117105954 30 162 0.0 0.0 0.00 0.00 0.00 83 1019.2
20220117104954 30 162 0.0 0.0 0.00 0.00 0.00 83 1019.3
20220117103954 31 162 0.0 0.0 0.00 0.00 0.00 82 1019.2
20220117102954 31 162 0.0 0.0 0.00 0.00 0.00 82 1019.1
20220117101954 31 183 0.0 0.0 0.00 0.00 0.00 82 1019.2
20220117100953 31 183 0.0 0.0 0.00 0.00 0.00 81 1019.3
20220117095954 31 183 0.0 0.0 0.00 0.00 0.00 81 1019.4
20220117094954 31 183 0.0 0.0 0.00 0.00 0.00 80 1019.3
20220117093953 31 183 0.0 0.0 0.00 0.00 0.00 80 1019.2
20220117092955 31 183 0.0 0.0 0.00 0.00 0.00 80 1019.1
20220117091953 31 183 0.0 0.0 0.00 0.00 0.00 80 1019.2
20220117090953 31 179 0.0 0.0 0.00 0.00 0.00 79 1019.2
20220117085953 32 179 0.0 0.0 0.00 0.00 0.00 79 1019.0
20220117084953 32 179 0.0 0.0 0.00 0.00 0.00 78 1018.8
20220117083953 32 179 0.0 0.0 0.00 0.00 0.00 78 1018.6
20220117082952 32 179 0.0 0.0 0.00 0.00 0.00 78 1018.5
20220117082023 32 179 0.0 0.0 0.00 0.00 0.00 78 1018.4
20220117081023 32 179 1.0 2.0 0.00 0.00 0.00 77 1018.3
20220117080023 33 175 1.0 1.0 0.00 0.00 0.00 77 1018.4
20220117075022 33 175 0.0 0.0 0.00 0.00 0.00 77 1018.2
20220117074022 33 175 0.0 1.0 0.00 0.00 0.00 77 1018.1
20220117073022 33 175 0.0 0.0 0.00 0.00 0.00 76 1018.1
20220117072022 33 175 0.0 0.0 0.00 0.00 0.00 76 1018.0
20220117071022 33 175 0.0 0.0 0.00 0.00 0.00 76 1017.9
20220117070022 33 175 0.0 0.0 0.00 0.00 0.00 75 1017.8
20220117065022 33 175 0.0 0.0 0.00 0.00 0.00 74 1017.7
20220117064022 33 175 0.0 0.0 0.00 0.00 0.00 74 1017.8
20220117063022 33 175 0.0 0.0 0.00 0.00 0.00 73 1017.8
20220117062022 33 175 0.0 0.0 0.00 0.00 0.00 72 1017.8
20220117061021 34 175 0.0 0.0 0.00 0.00 0.00 71 1017.8
20220117060021 34 175 0.0 0.0 0.00 0.00 0.00 70 1017.7
20220117055023 34 175 0.0 0.0 0.00 0.00 0.00 69 1017.5
20220117054021 35 175 0.0 0.0 0.00 0.00 0.00 69 1017.6
20220117053021 35 175 0.0 0.0 0.00 0.00 0.00 69 1017.8
20220117052021 35 175 0.0 1.0 0.00 0.00 0.00 68 1017.7
20220117051021 35 175 1.0 1.0 0.00 0.00 0.00 67 1017.6
20220117050021 36 172 0.0 0.0 0.00 0.00 0.00 66 1017.6
20220117045021 36 172 0.0 0.0 0.00 0.00 0.00 65 1017.5
20220117044021 36 172 0.0 0.0 0.00 0.00 0.00 64 1017.4
20220117043020 36 172 0.0 0.0 0.00 0.00 0.00 65 1017.5
20220117042020 37 172 0.0 0.0 0.00 0.00 0.00 64 1017.5
20220117041020 37 172 0.0 0.0 0.00 0.00 0.00 63 1017.4
20220117040020 37 172 0.0 0.0 0.00 0.00 0.00 63 1017.4
20220117035019 37 172 0.0 0.0 0.00 0.00 0.00 63 1017.1
20220117034020 38 172 0.0 0.0 0.00 0.00 0.00 61 1017.2
20220117033021 38 172 0.0 0.0 0.00 0.00 0.00 60 1017.2
20220117032019 39 172 1.0 1.0 0.00 0.00 0.00 59 1017.2
20220117031019 39 172 0.0 0.0 0.00 0.00 0.00 59 1017.2
20220117030019 39 172 0.0 0.0 0.00 0.00 0.00 58 1017.2
20220117025019 40 172 0.0 0.0 0.00 0.00 0.00 57 1017.2
20220117024019 40 172 0.0 0.0 0.00 0.00 0.00 56 1017.2
20220117023019 41 172 0.0 1.0 0.00 0.00 0.00 54 1017.0
20220117022018 42 172 0.0 0.0 0.00 0.00 0.00 54 1017.0
20220117021019 43 172 0.0 0.0 0.00 0.00 0.00 51 1016.9
20220117020018 43 172 0.0 0.0 0.00 0.00 0.00 49 1016.7
20220117015019 44 172 0.0 0.0 0.00 0.00 0.00 49 1016.6
20220117014018 45 172 0.0 0.0 0.00 0.00 0.00 45 1016.5
20220117013018 45 172 0.0 0.0 0.00 0.00 0.00 45 1016.4
20220117012018 46 172 0.0 0.0 0.00 0.00 0.00 45 1016.2
20220117011018 46 173 0.0 0.0 0.00 0.00 0.00 45 1016.2
20220117010018 46 178 0.0 0.0 0.00 0.00 0.00 45 1016.2
20220117005018 47 178 0.0 0.0 0.00 0.00 0.00 44 1016.1
20220117004017 48 174 0.0 0.0 0.00 0.00 0.00 43 1015.8
20220117003017 50 104 0.0 0.0 0.00 0.00 0.00 41 1015.9
20220117002017 52 101 0.0 0.0 0.00 0.00 0.00 38 1015.9
20220117001017 55 98 0.0 0.0 0.00 0.00 0.00 35 1015.6
20220117000017 57 98 0.0 0.0 0.00 0.00 0.00 30 1015.8
20220116235017 59 97 0.0 0.0 0.00 0.00 0.00 28 1016.1
20220116234017 60 87 0.0 0.0 0.00 0.00 0.00 26 1016.2
20220116233017 61 40 0.0 0.0 0.00 0.00 0.00 24 1016.4
20220116232017 62 89 0.0 2.0 0.00 0.00 0.00 24 1016.3
20220116231018 62 315 0.0 0.0 0.00 0.00 0.00 24 1016.2
20220116230017 63 99 2.0 4.0 0.00 0.00 0.00 23 1016.4
20220116225016 63 123 0.0 2.0 0.00 0.00 0.00 23 1016.1
20220116224017 63 84 2.0 3.0 0.00 0.00 0.00 22 1016.1
20220116223016 65 85 0.0 4.0 0.00 0.00 0.00 20 1016.2
20220116222016 65 198 0.0 1.0 0.00 0.00 0.00 21 1016.3
20220116221016 65 325 3.0 4.0 0.00 0.00 0.00 20 1016.4